createdAt,value
2023-02-23T00:00:55.343Z,-5.63
2023-02-23T00:01:58.787Z,-5.70
2023-02-23T00:03:02.732Z,-5.64
2023-02-23T00:04:07.163Z,-5.60
2023-02-23T00:05:09.240Z,-5.60
2023-02-23T00:06:12.143Z,-5.96
2023-02-23T00:07:14.070Z,-5.72
2023-02-23T00:08:16.327Z,-5.78
2023-02-23T00:09:19.916Z,-5.78
2023-02-23T00:10:24.374Z,-5.79
2023-02-23T00:11:27.515Z,-5.79
2023-02-23T00:12:29.533Z,-5.72
2023-02-23T00:13:33.246Z,-5.86
2023-02-23T00:14:36.478Z,-5.87
2023-02-23T00:15:38.415Z,-5.85
2023-02-23T00:16:41.382Z,-6.06
2023-02-23T00:17:45.248Z,-5.91
2023-02-23T00:18:50.869Z,-5.98
2023-02-23T00:19:52.960Z,-5.99
2023-02-23T00:20:57.816Z,-6.00
2023-02-23T00:21:59.743Z,-5.97
2023-02-23T00:23:02.001Z,-6.17
2023-02-23T00:24:06.706Z,-6.13
2023-02-23T00:25:10.557Z,-6.13
2023-02-23T00:26:12.969Z,-6.06
2023-02-23T00:27:15.321Z,-6.33
2023-02-23T00:28:17.316Z,-6.12
2023-02-23T00:29:22.451Z,-6.28
2023-02-23T00:30:24.582Z,-6.19
2023-02-23T00:31:27.665Z,-6.11
2023-02-23T00:32:29.862Z,-6.12
2023-02-23T00:33:31.927Z,-6.16
2023-02-23T00:34:36.312Z,-6.24
2023-02-23T00:35:38.243Z,-6.11
2023-02-23T00:36:40.997Z,-6.16
2023-02-23T00:37:47.607Z,-6.14
2023-02-23T00:38:52.942Z,-6.14
2023-02-23T00:39:56.564Z,-6.07
2023-02-23T00:40:58.670Z,-6.03
2023-02-23T00:42:00.557Z,-6.07
2023-02-23T00:43:02.479Z,-6.05
2023-02-23T00:44:04.415Z,-5.93
2023-02-23T00:45:08.055Z,-5.95
2023-02-23T00:46:10.834Z,-5.95
2023-02-23T00:47:13.818Z,-5.95
2023-02-23T00:48:15.738Z,-5.93
2023-02-23T00:49:19.467Z,-6.05
2023-02-23T00:50:22.644Z,-6.06
2023-02-23T00:51:26.868Z,-6.04
2023-02-23T00:52:29.036Z,-6.01
2023-02-23T00:53:31.993Z,-5.98
2023-02-23T00:54:33.911Z,-6.25
2023-02-23T00:55:39.773Z,-6.36
2023-02-23T00:56:42.643Z,-6.28
2023-02-23T00:57:44.661Z,-6.22
2023-02-23T00:58:47.154Z,-6.17
2023-02-23T00:59:49.225Z,-6.27
2023-02-23T01:00:53.231Z,-6.54
2023-02-23T01:01:55.272Z,-6.61
2023-02-23T01:02:57.424Z,-6.39
2023-02-23T01:04:02.009Z,-6.62
2023-02-23T01:05:05.078Z,-6.49
2023-02-23T01:06:10.778Z,-6.56
2023-02-23T01:07:13.398Z,-6.71
2023-02-23T01:08:17.375Z,-6.46
2023-02-23T01:09:19.274Z,-6.64
2023-02-23T01:10:21.855Z,-6.67
2023-02-23T01:11:27.634Z,-6.74
2023-02-23T01:12:30.446Z,-6.82
2023-02-23T01:13:32.724Z,-6.69
2023-02-23T01:14:36.632Z,-6.72
2023-02-23T01:15:43.605Z,-6.68
2023-02-23T01:16:45.805Z,-6.70
2023-02-23T01:17:48.009Z,-6.56
2023-02-23T01:18:51.100Z,-6.62
2023-02-23T01:19:53.119Z,-6.48
2023-02-23T01:20:55.496Z,-6.56
2023-02-23T01:21:57.577Z,-6.61
2023-02-23T01:22:59.549Z,-6.44
2023-02-23T01:24:02.627Z,-6.39
2023-02-23T01:25:05.621Z,-6.40
2023-02-23T01:26:20.181Z,-6.84
2023-02-23T01:27:22.490Z,-6.55
2023-02-23T01:28:24.793Z,-6.86
2023-02-23T01:29:26.701Z,-6.84
2023-02-23T01:30:29.913Z,-6.59
2023-02-23T01:31:31.961Z,-6.48
2023-02-23T01:32:35.959Z,-6.83
2023-02-23T01:33:38.020Z,-6.63
2023-02-23T01:34:39.878Z,-6.55
2023-02-23T01:35:41.778Z,-6.59
2023-02-23T01:36:44.590Z,-6.44
2023-02-23T01:37:47.954Z,-6.45
2023-02-23T01:38:50.113Z,-6.42
2023-02-23T01:39:52.154Z,-6.65
2023-02-23T01:40:54.237Z,-6.49
2023-02-23T01:41:56.109Z,-6.51
2023-02-23T01:43:14.214Z,-6.55
2023-02-23T01:44:22.882Z,-6.67
2023-02-23T01:45:34.542Z,-6.69
2023-02-23T01:46:39.296Z,-6.72
2023-02-23T01:47:41.812Z,-6.72
2023-02-23T01:48:44.336Z,-6.94
2023-02-23T01:49:46.919Z,-7.11
2023-02-23T01:50:56.121Z,-7.14
2023-02-23T01:52:10.898Z,-7.33
2023-02-23T01:53:14.541Z,-7.28
2023-02-23T01:54:22.993Z,-7.32
2023-02-23T01:55:29.235Z,-7.38
2023-02-23T01:56:35.229Z,-7.18
2023-02-23T01:57:37.279Z,-7.07
2023-02-23T01:58:42.744Z,-7.09
2023-02-23T01:59:47.378Z,-7.21
2023-02-23T02:02:03.674Z,-7.07
2023-02-23T02:03:09.535Z,-7.15
2023-02-23T02:04:13.045Z,-7.45
2023-02-23T02:05:16.523Z,-7.52
2023-02-23T02:06:22.569Z,-7.63
2023-02-23T02:07:28.270Z,-7.64
2023-02-23T02:08:32.806Z,-7.50
2023-02-23T02:09:38.095Z,-7.55
2023-02-23T02:10:40.324Z,-7.54
2023-02-23T02:11:43.294Z,-7.49
2023-02-23T02:12:51.765Z,-7.55
2023-02-23T02:13:57.454Z,-7.42
2023-02-23T02:15:00.023Z,-7.42
2023-02-23T02:16:23.666Z,-7.37
2023-02-23T02:17:35.040Z,-7.35
2023-02-23T02:18:55.779Z,-7.47
2023-02-23T02:20:07.600Z,-7.44
2023-02-23T02:21:16.598Z,-7.57
2023-02-23T02:22:31.693Z,-7.57
2023-02-23T02:23:55.551Z,-7.58
2023-02-23T02:25:16.478Z,-7.56
2023-02-23T02:26:41.256Z,-7.35
2023-02-23T02:27:49.770Z,-7.62
2023-02-23T02:29:01.399Z,-7.45
2023-02-23T02:31:42.087Z,-7.36
2023-02-23T02:32:54.276Z,-7.64
2023-02-23T02:34:06.023Z,-7.56
2023-02-23T02:35:39.947Z,-7.43
2023-02-23T02:37:06.911Z,-7.38
2023-02-23T02:38:12.698Z,-7.61
2023-02-23T02:39:26.992Z,-7.46
2023-02-23T02:40:47.780Z,-7.60
2023-02-23T02:41:59.565Z,-7.55
2023-02-23T02:43:11.452Z,-7.42
2023-02-23T02:44:33.866Z,-7.87
2023-02-23T02:46:13.292Z,-7.91
2023-02-23T02:48:59.228Z,-7.62
2023-02-23T02:50:17.370Z,-7.70
2023-02-23T02:51:28.650Z,-7.85
2023-02-23T02:52:40.114Z,-7.85
2023-02-23T02:53:46.915Z,-8.00
2023-02-23T02:54:52.597Z,-7.73
2023-02-23T02:55:58.438Z,-7.85
2023-02-23T02:57:02.875Z,-7.73
2023-02-23T02:58:07.299Z,-7.88
2023-02-23T02:59:13.401Z,-7.76
2023-02-23T03:00:22.903Z,-8.05
2023-02-23T03:01:25.521Z,-7.98
2023-02-23T03:02:28.863Z,-7.96
2023-02-23T03:03:40.296Z,-7.96
2023-02-23T03:04:42.423Z,-7.99
2023-02-23T03:05:51.701Z,-8.16
2023-02-23T03:07:03.910Z,-8.03
2023-02-23T03:08:15.264Z,-7.93
2023-02-23T03:09:55.570Z,-7.99
2023-02-23T03:11:07.396Z,-7.85
2023-02-23T03:12:13.352Z,-7.71
2023-02-23T03:13:25.810Z,-7.87
2023-02-23T03:14:58.179Z,-7.87
2023-02-23T03:16:10.981Z,-7.94
2023-02-23T03:17:31.728Z,-8.03
2023-02-23T03:18:55.979Z,-7.90
2023-02-23T03:20:04.869Z,-8.01
2023-02-23T03:21:17.651Z,-7.96
2023-02-23T03:22:29.685Z,-8.05
2023-02-23T03:23:38.272Z,-7.94
2023-02-23T03:24:44.190Z,-8.32
2023-02-23T03:25:49.876Z,-8.10
2023-02-23T03:27:05.708Z,-8.15
2023-02-23T03:28:24.328Z,-8.19
2023-02-23T03:29:48.522Z,-8.10
2023-02-23T03:31:00.809Z,-8.26
2023-02-23T03:32:26.450Z,-8.31
2023-02-23T03:33:47.189Z,-8.26
2023-02-23T03:34:53.044Z,-8.19
2023-02-23T03:35:59.641Z,-8.20
2023-02-23T03:37:24.010Z,-8.18
2023-02-23T03:38:35.586Z,-8.27
2023-02-23T03:39:44.281Z,-8.22
2023-02-23T03:40:48.758Z,-8.26
2023-02-23T03:41:54.072Z,-8.33
2023-02-23T03:42:58.835Z,-8.45
2023-02-23T03:44:04.516Z,-8.30
2023-02-23T03:45:12.937Z,-8.14
2023-02-23T03:46:17.789Z,-8.23
2023-02-23T03:47:23.708Z,-8.22
2023-02-23T03:48:27.048Z,-8.20
2023-02-23T03:49:33.304Z,-8.34
2023-02-23T03:50:54.371Z,-8.31
2023-02-23T03:52:03.107Z,-8.28
2023-02-23T03:53:09.169Z,-8.20
2023-02-23T03:54:15.798Z,-8.16
2023-02-23T03:55:21.519Z,-8.32
2023-02-23T03:56:27.449Z,-8.33
2023-02-23T03:57:31.990Z,-8.32
2023-02-23T03:58:38.283Z,-8.37
2023-02-23T03:59:43.974Z,-8.21
2023-02-23T04:00:51.723Z,-8.27
2023-02-23T04:01:55.522Z,-8.53
2023-02-23T04:03:00.973Z,-8.56
2023-02-23T04:04:06.023Z,-8.45
2023-02-23T04:05:11.836Z,-8.62
2023-02-23T04:06:17.941Z,-8.32
2023-02-23T04:07:20.480Z,-8.52
2023-02-23T04:08:25.854Z,-8.53
2023-02-23T04:09:28.723Z,-8.64
2023-02-23T04:10:34.485Z,-8.49
2023-02-23T04:11:43.032Z,-8.57
2023-02-23T04:12:58.016Z,-8.46
2023-02-23T04:14:03.401Z,-8.72
2023-02-23T04:15:11.985Z,-8.66
2023-02-23T04:16:16.188Z,-8.52
2023-02-23T04:17:19.008Z,-8.56
2023-02-23T04:18:30.806Z,-8.47
2023-02-23T04:19:32.952Z,-8.54
2023-02-23T04:20:35.259Z,-8.58
2023-02-23T04:21:37.594Z,-8.54
2023-02-23T04:22:39.589Z,-8.69
2023-02-23T04:23:42.376Z,-8.61
2023-02-23T04:24:45.277Z,-8.49
2023-02-23T04:25:47.176Z,-8.53
2023-02-23T04:26:49.706Z,-8.54
2023-02-23T04:27:51.883Z,-8.61
2023-02-23T04:28:53.782Z,-8.62
2023-02-23T04:29:55.815Z,-8.54
2023-02-23T04:30:58.295Z,-8.49
2023-02-23T04:32:00.390Z,-8.48
2023-02-23T04:33:04.419Z,-8.69
2023-02-23T04:34:07.048Z,-8.69
2023-02-23T04:35:09.614Z,-8.71
2023-02-23T04:36:12.344Z,-8.51
2023-02-23T04:37:15.494Z,-8.58
2023-02-23T04:38:17.409Z,-8.69
2023-02-23T04:39:19.446Z,-8.64
2023-02-23T04:40:24.197Z,-8.72
2023-02-23T04:41:25.901Z,-8.83
2023-02-23T04:42:27.797Z,-8.82
2023-02-23T04:43:29.794Z,-8.90
2023-02-23T04:44:31.716Z,-8.87
2023-02-23T04:45:33.691Z,-8.74
2023-02-23T04:46:35.916Z,-8.85
2023-02-23T04:47:38.053Z,-8.85
2023-02-23T04:48:39.943Z,-8.89
2023-02-23T04:49:42.848Z,-8.74
2023-02-23T04:50:45.202Z,-8.74
2023-02-23T04:51:47.085Z,-8.61
2023-02-23T04:52:49.994Z,-8.56
2023-02-23T04:53:51.891Z,-8.48
2023-02-23T04:54:53.925Z,-8.46
2023-02-23T04:55:56.090Z,-8.42
2023-02-23T04:56:58.661Z,-8.52
2023-02-23T04:58:03.063Z,-8.43
2023-02-23T04:59:05.215Z,-8.68
2023-02-23T05:00:11.059Z,-8.58
2023-02-23T05:01:14.334Z,-8.39
2023-02-23T05:02:16.600Z,-8.47
2023-02-23T05:03:18.489Z,-8.51
2023-02-23T05:04:20.366Z,-8.44
2023-02-23T05:05:22.342Z,-8.42
2023-02-23T05:06:24.544Z,-8.38
2023-02-23T05:07:26.523Z,-8.39
2023-02-23T05:08:28.515Z,-8.28
2023-02-23T05:09:31.419Z,-8.36
2023-02-23T05:10:33.970Z,-8.29
2023-02-23T05:11:37.804Z,-8.31
2023-02-23T05:12:39.927Z,-8.37
2023-02-23T05:13:41.809Z,-8.25
2023-02-23T05:14:43.706Z,-8.45
2023-02-23T05:15:45.764Z,-8.31
2023-02-23T05:16:48.573Z,-8.45
2023-02-23T05:17:50.556Z,-8.35
2023-02-23T05:18:52.456Z,-8.16
2023-02-23T05:19:54.341Z,-8.19
2023-02-23T05:21:04.494Z,-8.21
2023-02-23T05:22:06.778Z,-8.21
2023-02-23T05:23:09.606Z,-8.25
2023-02-23T05:24:12.885Z,-8.45
2023-02-23T05:25:15.169Z,-8.45
2023-02-23T05:26:18.074Z,-8.45
2023-02-23T05:27:20.401Z,-8.56
2023-02-23T05:28:22.318Z,-8.38
2023-02-23T05:29:24.429Z,-8.39
2023-02-23T05:30:26.574Z,-8.40
2023-02-23T05:31:29.277Z,-8.44
2023-02-23T05:32:31.533Z,-8.40
2023-02-23T05:33:35.077Z,-8.45
2023-02-23T05:34:38.411Z,-8.59
2023-02-23T05:35:41.615Z,-8.45
2023-02-23T05:36:43.736Z,-8.28
2023-02-23T05:37:45.876Z,-8.18
2023-02-23T05:38:48.381Z,-8.32
2023-02-23T05:39:50.357Z,-8.34
2023-02-23T05:40:52.948Z,-8.43
2023-02-23T05:41:54.849Z,-8.37
2023-02-23T05:43:00.322Z,-8.43
2023-02-23T05:44:02.419Z,-8.58
2023-02-23T05:45:05.833Z,-8.51
2023-02-23T05:46:11.211Z,-8.73
2023-02-23T05:47:13.197Z,-8.76
2023-02-23T05:48:15.076Z,-8.35
2023-02-23T05:49:17.195Z,-8.34
2023-02-23T05:50:20.604Z,-8.22
2023-02-23T05:51:23.904Z,-8.15
2023-02-23T05:52:27.174Z,-8.48
2023-02-23T05:53:29.202Z,-8.53
2023-02-23T05:54:31.815Z,-8.26
2023-02-23T05:55:35.329Z,-8.20
2023-02-23T05:56:37.565Z,-8.29
2023-02-23T05:57:39.824Z,-8.17
2023-02-23T05:58:41.967Z,-8.25
2023-02-23T05:59:44.276Z,-8.20
2023-02-23T06:00:46.847Z,-8.24
2023-02-23T06:01:48.757Z,-8.47
2023-02-23T06:02:50.952Z,-8.53
2023-02-23T06:03:53.312Z,-8.26
2023-02-23T06:04:55.464Z,-8.25
2023-02-23T06:05:58.939Z,-8.26
2023-02-23T06:07:01.221Z,-8.10
2023-02-23T06:08:05.288Z,-8.05
2023-02-23T06:09:07.235Z,-8.05
2023-02-23T06:10:11.259Z,-8.20
2023-02-23T06:11:13.271Z,-8.13
2023-02-23T06:12:15.260Z,-8.05
2023-02-23T06:13:18.560Z,-7.98
2023-02-23T06:14:20.627Z,-7.96
2023-02-23T06:15:23.000Z,-7.88
2023-02-23T06:16:26.991Z,-7.96
2023-02-23T06:17:29.175Z,-7.82
2023-02-23T06:18:31.053Z,-7.74
2023-02-23T06:19:33.429Z,-7.86
2023-02-23T06:20:39.978Z,-7.78
2023-02-23T06:21:40.975Z,-7.83
2023-02-23T06:22:42.883Z,-7.90
2023-02-23T06:23:45.028Z,-7.80
2023-02-23T06:24:46.915Z,-7.99
2023-02-23T06:25:48.901Z,-8.03
2023-02-23T06:26:54.171Z,-7.94
2023-02-23T06:27:58.252Z,-8.02
2023-02-23T06:29:00.781Z,-7.97
2023-02-23T06:30:03.045Z,-7.96
2023-02-23T06:31:05.729Z,-7.79
2023-02-23T06:32:08.205Z,-7.69
2023-02-23T06:33:10.221Z,-7.49
2023-02-23T06:34:12.150Z,-7.58
2023-02-23T06:35:14.015Z,-7.52
2023-02-23T06:36:16.842Z,-7.34
2023-02-23T06:37:18.759Z,-7.62
2023-02-23T06:38:22.376Z,-7.44
2023-02-23T06:39:24.364Z,-7.37
2023-02-23T06:40:26.803Z,-7.23
2023-02-23T06:41:29.605Z,-6.95
2023-02-23T06:42:31.740Z,-6.82
2023-02-23T06:43:33.630Z,-6.72
2023-02-23T06:44:35.624Z,-6.54
2023-02-23T06:45:38.642Z,-6.63
2023-02-23T06:46:40.996Z,-6.97
2023-02-23T06:47:45.435Z,-6.74
2023-02-23T06:48:47.432Z,-6.79
2023-02-23T06:49:49.324Z,-6.68
2023-02-23T06:50:51.353Z,-6.37
2023-02-23T06:51:53.493Z,-6.49
2023-02-23T06:52:55.577Z,-6.41
2023-02-23T06:53:58.433Z,-6.07
2023-02-23T06:55:00.581Z,-6.19
2023-02-23T06:56:03.851Z,-6.04
2023-02-23T06:57:06.050Z,-6.13
2023-02-23T06:58:08.000Z,-6.07
2023-02-23T06:59:10.055Z,-5.92
2023-02-23T07:00:14.918Z,-5.50
2023-02-23T07:01:17.802Z,-5.54
2023-02-23T07:02:20.742Z,-5.51
2023-02-23T07:03:23.502Z,-5.66
2023-02-23T07:04:25.523Z,-5.38
2023-02-23T07:05:27.493Z,-4.97
2023-02-23T07:06:29.696Z,-4.64
2023-02-23T07:07:31.597Z,-4.30
2023-02-23T07:08:34.082Z,-4.19
2023-02-23T07:09:36.254Z,-4.74
2023-02-23T07:10:38.573Z,-4.40
2023-02-23T07:11:41.370Z,-4.70
2023-02-23T07:12:45.570Z,-5.26
2023-02-23T07:13:47.575Z,-5.26
2023-02-23T07:14:49.709Z,-5.60
2023-02-23T07:15:55.457Z,-5.28
2023-02-23T07:16:58.144Z,-5.22
2023-02-23T07:18:00.289Z,-4.88
2023-02-23T07:19:02.961Z,-5.28
2023-02-23T07:20:06.502Z,-4.94
2023-02-23T07:21:08.408Z,-5.05
2023-02-23T07:22:10.278Z,-4.82
2023-02-23T07:23:12.201Z,-4.73
2023-02-23T07:24:14.081Z,-5.08
2023-02-23T07:25:16.214Z,-5.13
2023-02-23T07:26:18.466Z,-4.83
2023-02-23T07:27:20.546Z,-4.63
2023-02-23T07:28:22.848Z,-4.65
2023-02-23T07:29:24.740Z,-4.67
2023-02-23T07:30:27.029Z,-4.52
2023-02-23T07:31:29.441Z,-4.94
2023-02-23T07:32:31.648Z,-4.82
2023-02-23T07:33:34.062Z,-4.32
2023-02-23T07:34:37.006Z,-4.03
2023-02-23T07:35:38.916Z,-4.84
2023-02-23T07:36:41.022Z,-4.57
2023-02-23T07:37:43.289Z,-4.77
2023-02-23T07:38:45.270Z,-4.48
2023-02-23T07:39:47.249Z,-3.94
2023-02-23T07:40:50.955Z,-4.31
2023-02-23T07:41:52.950Z,-4.30
2023-02-23T07:42:54.975Z,-4.61
2023-02-23T07:43:59.111Z,-4.33
2023-02-23T07:45:01.486Z,-4.52
2023-02-23T07:46:05.507Z,-4.72
2023-02-23T07:47:07.787Z,-4.43
2023-02-23T07:48:09.758Z,-4.17
2023-02-23T07:49:12.262Z,-4.11
2023-02-23T07:50:15.465Z,-3.73
2023-02-23T07:51:18.181Z,-3.34
2023-02-23T07:52:20.642Z,-3.92
2023-02-23T07:53:23.362Z,-4.13
2023-02-23T07:54:25.256Z,-3.82
2023-02-23T07:55:27.140Z,-3.31
2023-02-23T07:56:29.646Z,-3.64
2023-02-23T07:57:32.576Z,-4.18
2023-02-23T07:58:34.632Z,-3.67
2023-02-23T07:59:39.060Z,-3.20
2023-02-23T08:00:41.960Z,-3.08
2023-02-23T08:01:44.966Z,-3.25
2023-02-23T08:02:47.084Z,-3.33
2023-02-23T08:03:49.515Z,-3.50
2023-02-23T08:04:51.577Z,-3.48
2023-02-23T08:05:53.679Z,-3.61
2023-02-23T08:06:56.047Z,-3.47
2023-02-23T08:07:58.945Z,-3.76
2023-02-23T08:09:02.592Z,-3.56
2023-02-23T08:10:06.182Z,-3.63
2023-02-23T08:11:08.705Z,-3.60
2023-02-23T08:12:11.292Z,-3.16
2023-02-23T08:13:13.733Z,-2.77
2023-02-23T08:14:15.643Z,-2.47
2023-02-23T08:15:17.784Z,-2.90
2023-02-23T08:16:19.996Z,-3.01
2023-02-23T08:17:22.342Z,-3.40
2023-02-23T08:18:24.978Z,-3.79
2023-02-23T08:19:27.949Z,-3.74
2023-02-23T08:20:30.273Z,-3.16
2023-02-23T08:21:32.296Z,-2.78
2023-02-23T08:22:48.507Z,-2.77
2023-02-23T08:23:38.911Z,-2.56
2023-02-23T08:24:41.118Z,-2.49
2023-02-23T08:25:43.417Z,-2.90
2023-02-23T08:26:45.548Z,-2.64
2023-02-23T08:27:48.864Z,-2.58
2023-02-23T08:28:54.920Z,-2.22
2023-02-23T08:29:57.209Z,-2.22
2023-02-23T08:30:59.681Z,-2.06
2023-02-23T08:32:05.827Z,-2.03
2023-02-23T08:33:08.101Z,-1.88
2023-02-23T08:34:10.290Z,-1.72
2023-02-23T08:35:13.780Z,-1.73
2023-02-23T08:36:15.986Z,-1.84
2023-02-23T08:37:18.206Z,-2.06
2023-02-23T08:38:21.805Z,-2.75
2023-02-23T08:39:23.864Z,-3.24
2023-02-23T08:40:27.225Z,-3.78
2023-02-23T08:41:29.273Z,-3.16
2023-02-23T08:42:31.947Z,-2.63
2023-02-23T08:43:33.894Z,-2.48
2023-02-23T08:44:35.779Z,-2.94
2023-02-23T08:45:38.425Z,-3.04
2023-02-23T08:46:40.634Z,-2.85
2023-02-23T08:47:42.567Z,-2.59
2023-02-23T08:48:44.664Z,-2.52
2023-02-23T08:49:47.800Z,-2.54
2023-02-23T08:50:50.611Z,-2.54
2023-02-23T08:51:52.796Z,-2.27
2023-02-23T08:52:54.844Z,-2.09
2023-02-23T08:53:57.941Z,-2.48
2023-02-23T08:54:59.814Z,-2.60
2023-02-23T08:56:05.162Z,-3.13
2023-02-23T08:57:07.326Z,-3.38
2023-02-23T08:58:10.123Z,-3.72
2023-02-23T08:59:13.137Z,-3.34
2023-02-23T09:00:19.103Z,-3.42
2023-02-23T09:01:21.641Z,-3.75
2023-02-23T09:02:23.703Z,-3.24
2023-02-23T09:03:27.415Z,-2.78
2023-02-23T09:04:31.450Z,-3.52
2023-02-23T09:05:36.699Z,-3.09
2023-02-23T09:06:39.494Z,-3.40
2023-02-23T09:07:43.212Z,-3.37
2023-02-23T09:08:46.980Z,-3.37
2023-02-23T09:09:56.170Z,-2.87
2023-02-23T09:10:58.375Z,-2.59
2023-02-23T09:12:02.046Z,-2.84
2023-02-23T09:13:04.283Z,-2.63
2023-02-23T09:14:06.168Z,-2.92
2023-02-23T09:15:09.482Z,-2.64
2023-02-23T09:16:13.299Z,-2.78
2023-02-23T09:17:17.766Z,-3.09
2023-02-23T09:18:19.202Z,-2.55
2023-02-23T09:19:21.206Z,-2.86
2023-02-23T09:20:24.085Z,-2.83
2023-02-23T09:21:26.626Z,-2.43
2023-02-23T09:22:28.774Z,-2.19
2023-02-23T09:23:30.886Z,-2.08
2023-02-23T09:24:32.954Z,-2.13
2023-02-23T09:25:43.755Z,-2.12
2023-02-23T09:26:46.076Z,-2.65
2023-02-23T09:27:50.875Z,-2.15
2023-02-23T09:28:52.877Z,-2.35
2023-02-23T09:29:55.832Z,-2.64
2023-02-23T09:30:57.991Z,-3.01
2023-02-23T09:32:00.411Z,-2.59
2023-02-23T09:33:02.710Z,-2.56
2023-02-23T09:34:04.751Z,-2.34
2023-02-23T09:35:07.894Z,-2.57
2023-02-23T09:36:13.291Z,-2.30
2023-02-23T09:37:15.438Z,-2.06
2023-02-23T09:38:17.310Z,-2.07
2023-02-23T09:39:29.152Z,-2.09
2023-02-23T09:40:26.429Z,-2.82
2023-02-23T09:42:01.111Z,-2.88
2023-02-23T09:43:19.147Z,-2.82
2023-02-23T09:44:34.218Z,-2.40
2023-02-23T09:45:40.154Z,-2.36
2023-02-23T09:48:00.484Z,-2.07
2023-02-23T09:49:05.253Z,-2.29
2023-02-23T09:50:19.110Z,-2.13
2023-02-23T09:51:22.748Z,-2.33
2023-02-23T09:52:28.441Z,-2.38
2023-02-23T09:53:37.027Z,-2.08
2023-02-23T09:54:39.388Z,-2.52
2023-02-23T09:55:43.141Z,-2.34
2023-02-23T09:56:47.652Z,-2.53
2023-02-23T09:57:49.955Z,-2.52
2023-02-23T09:58:52.006Z,-2.46
2023-02-23T09:59:54.103Z,-2.29
2023-02-23T10:01:06.551Z,-2.15
2023-02-23T10:02:29.140Z,-2.14
2023-02-23T10:03:34.411Z,-1.94
2023-02-23T10:04:46.318Z,-1.88
2023-02-23T10:05:54.952Z,-1.74
2023-02-23T10:07:06.886Z,-2.04
2023-02-23T10:08:24.873Z,-1.89
2023-02-23T10:09:47.357Z,-2.57
2023-02-23T10:12:31.195Z,-1.81
2023-02-23T10:13:37.109Z,-2.00
2023-02-23T10:14:43.477Z,-2.09
2023-02-23T10:15:55.105Z,-2.54
2023-02-23T10:17:03.892Z,-2.75
2023-02-23T10:18:18.363Z,-2.27
2023-02-23T10:19:50.132Z,-2.28
2023-02-23T10:21:06.068Z,-2.69
2023-02-23T10:22:10.025Z,-2.15
2023-02-23T10:23:15.709Z,-1.93
2023-02-23T10:24:21.408Z,-1.94
2023-02-23T10:25:26.498Z,-1.92
2023-02-23T10:26:35.160Z,-2.17
2023-02-23T10:28:55.312Z,-2.27
2023-02-23T10:29:59.876Z,-2.56
2023-02-23T10:31:05.628Z,-2.58
2023-02-23T10:32:29.741Z,-2.76
2023-02-23T10:33:35.573Z,-2.53
2023-02-23T10:34:38.944Z,-2.35
2023-02-23T10:35:40.877Z,-2.31
2023-02-23T10:36:49.836Z,-2.59
2023-02-23T10:37:53.570Z,-2.84
2023-02-23T10:38:55.843Z,-2.36
2023-02-23T10:39:59.067Z,-2.12
2023-02-23T10:41:01.469Z,-1.92
2023-02-23T10:42:08.571Z,-1.75
2023-02-23T10:43:12.885Z,-1.93
2023-02-23T10:44:21.785Z,-1.65
2023-02-23T10:45:26.263Z,-1.67
2023-02-23T10:46:32.563Z,-1.51
2023-02-23T10:47:35.761Z,-1.33
2023-02-23T10:48:40.833Z,-1.26
2023-02-23T10:49:49.180Z,-1.16
2023-02-23T10:50:54.630Z,-1.23
2023-02-23T10:51:57.552Z,-1.18
2023-02-23T10:53:06.083Z,-1.25
2023-02-23T10:54:35.077Z,-1.21
2023-02-23T10:55:38.338Z,-1.21
2023-02-23T10:56:45.594Z,-1.15
2023-02-23T10:57:47.752Z,-1.04
2023-02-23T10:58:55.624Z,-0.98
2023-02-23T11:00:22.643Z,-1.15
2023-02-23T11:01:34.798Z,-1.32
2023-02-23T11:02:37.382Z,-2.10
2023-02-23T11:03:52.271Z,-2.07
2023-02-23T11:04:57.972Z,-1.92
2023-02-23T11:06:00.976Z,-2.21
2023-02-23T11:07:09.521Z,-2.39
2023-02-23T11:08:16.150Z,-2.08
2023-02-23T11:09:44.477Z,-1.75
2023-02-23T11:10:34.765Z,-1.58
2023-02-23T11:11:38.314Z,-1.38
2023-02-23T11:12:40.457Z,-1.35
2023-02-23T11:13:45.730Z,-1.20
2023-02-23T11:14:49.854Z,-1.51
2023-02-23T11:15:58.665Z,-1.29
2023-02-23T11:17:00.787Z,-1.06
2023-02-23T11:18:05.282Z,-1.07
2023-02-23T11:19:11.491Z,-1.08
2023-02-23T11:20:25.786Z,-0.93
2023-02-23T11:21:33.890Z,-1.56
2023-02-23T11:22:38.662Z,-1.23
2023-02-23T11:23:41.394Z,-1.26
2023-02-23T11:24:43.753Z,-1.33
2023-02-23T11:25:49.193Z,-1.34
2023-02-23T11:26:54.225Z,-1.33
2023-02-23T11:27:58.208Z,-1.18
2023-02-23T11:29:03.924Z,-1.32
2023-02-23T11:30:09.085Z,-1.40
2023-02-23T11:31:21.688Z,-1.04
2023-02-23T11:32:34.370Z,-0.87
2023-02-23T11:33:38.589Z,-0.89
2023-02-23T11:34:41.933Z,-0.77
2023-02-23T11:35:44.900Z,-1.46
2023-02-23T11:37:03.278Z,-1.17
2023-02-23T11:38:23.313Z,-1.10
2023-02-23T11:39:25.370Z,-1.06
2023-02-23T11:40:31.456Z,-1.52
2023-02-23T11:41:35.172Z,-1.49
2023-02-23T11:42:37.324Z,-1.35
2023-02-23T11:43:43.034Z,-1.18
2023-02-23T11:44:51.527Z,-1.25
2023-02-23T11:45:56.861Z,-1.25
2023-02-23T11:46:59.264Z,-1.02
2023-02-23T11:48:04.548Z,-0.94
2023-02-23T11:49:11.138Z,-0.77
2023-02-23T11:50:25.820Z,-0.90
2023-02-23T11:51:37.518Z,-0.93
2023-02-23T11:52:42.863Z,-0.89
2023-02-23T11:53:47.102Z,-1.30
2023-02-23T11:54:56.216Z,-1.24
2023-02-23T11:56:01.707Z,-1.04
2023-02-23T11:57:05.356Z,-0.87
2023-02-23T11:58:31.160Z,-0.72
2023-02-23T11:59:37.824Z,-0.59
2023-02-23T12:00:40.695Z,-0.97
2023-02-23T12:01:49.670Z,-1.21
2023-02-23T12:02:58.390Z,-1.38
2023-02-23T12:04:01.108Z,-1.42
2023-02-23T12:05:22.063Z,-1.40
2023-02-23T12:06:41.290Z,-1.04
2023-02-23T12:08:07.905Z,-0.95
2023-02-23T12:09:28.695Z,-0.98
2023-02-23T12:10:43.274Z,-1.29
2023-02-23T12:12:04.526Z,-1.32
2023-02-23T12:13:13.325Z,-1.27
2023-02-23T12:14:24.677Z,-0.98
2023-02-23T12:15:36.089Z,-0.77
2023-02-23T12:16:42.054Z,-0.72
2023-02-23T12:17:48.260Z,-0.85
2023-02-23T12:18:56.963Z,-0.94
2023-02-23T12:20:02.643Z,-0.70
2023-02-23T12:21:29.334Z,-0.59
2023-02-23T12:24:11.548Z,-0.30
2023-02-23T12:25:17.277Z,-0.58
2023-02-23T12:26:22.401Z,-1.00
2023-02-23T12:27:46.186Z,-0.85
2023-02-23T12:31:49.679Z,-0.63
2023-02-23T12:33:04.340Z,-0.67
2023-02-23T12:34:27.970Z,-0.75
2023-02-23T12:35:48.726Z,-0.63
2023-02-23T12:38:15.137Z,-0.90
2023-02-23T12:39:29.807Z,-0.80
2023-02-23T12:40:35.858Z,-0.86
2023-02-23T12:42:02.697Z,-0.62
2023-02-23T12:43:28.426Z,-0.53
2023-02-23T12:44:43.286Z,-0.42
2023-02-23T12:46:06.688Z,-0.41
2023-02-23T12:47:28.930Z,-1.00
2023-02-23T12:48:49.923Z,-1.23
2023-02-23T12:49:58.596Z,-1.24
2023-02-23T12:51:04.585Z,-1.00
2023-02-23T12:52:10.385Z,-0.80
2023-02-23T12:53:19.360Z,-0.65
2023-02-23T12:54:21.638Z,-0.74
2023-02-23T12:55:56.372Z,-0.94
2023-02-23T12:57:10.767Z,-0.71
2023-02-23T12:58:25.695Z,-0.65
2023-02-23T12:59:46.541Z,-0.72
2023-02-23T13:01:00.897Z,-0.77
2023-02-23T13:02:15.827Z,-0.77
2023-02-23T13:03:38.558Z,-0.95
2023-02-23T13:05:10.428Z,-0.84
2023-02-23T13:06:16.692Z,-0.65
2023-02-23T13:07:25.682Z,-0.52
2023-02-23T13:08:49.602Z,-0.51
2023-02-23T13:10:06.829Z,-0.80
2023-02-23T13:11:40.096Z,-0.70
2023-02-23T13:12:54.865Z,-0.67
2023-02-23T13:14:00.793Z,-0.67
2023-02-23T13:15:36.475Z,-0.95
2023-02-23T13:18:28.024Z,-0.93
2023-02-23T13:19:36.736Z,-0.93
2023-02-23T13:21:11.920Z,-0.82
2023-02-23T13:22:30.027Z,-0.69
2023-02-23T13:23:47.429Z,-0.62
2023-02-23T13:24:54.533Z,-0.59
2023-02-23T13:26:05.133Z,-0.56
2023-02-23T13:27:21.588Z,-0.53
2023-02-23T13:28:30.044Z,-0.55
2023-02-23T13:30:58.533Z,-0.37
2023-02-23T13:32:03.700Z,-0.51
2023-02-23T13:33:09.937Z,-0.49
2023-02-23T13:34:17.326Z,-0.55
2023-02-23T13:35:21.083Z,-0.68
2023-02-23T13:36:28.386Z,-1.03
2023-02-23T13:37:46.515Z,-0.97
2023-02-23T13:39:21.004Z,-1.13
2023-02-23T13:40:46.054Z,-0.94
2023-02-23T13:42:07.123Z,-0.76
2023-02-23T13:43:19.096Z,-0.66
2023-02-23T13:44:49.000Z,-0.60
2023-02-23T13:46:04.106Z,-0.56
2023-02-23T13:47:22.399Z,-0.60
2023-02-23T13:48:56.268Z,-0.53
2023-02-23T13:50:11.339Z,-0.48
2023-02-23T13:51:17.355Z,-0.54
2023-02-23T13:52:23.512Z,-0.56
2023-02-23T13:53:38.360Z,-0.56
2023-02-23T13:54:45.171Z,-0.58
2023-02-23T13:55:50.395Z,-0.57
2023-02-23T13:56:58.250Z,-0.60
2023-02-23T13:58:16.277Z,-0.65
2023-02-23T13:59:24.843Z,-0.72
2023-02-23T14:00:27.104Z,-0.68
2023-02-23T14:01:32.241Z,-0.66
2023-02-23T14:02:38.241Z,-0.75
2023-02-23T14:03:47.137Z,-0.78
2023-02-23T14:04:49.978Z,-0.82
2023-02-23T14:05:55.827Z,-0.78
2023-02-23T14:07:04.904Z,-0.81
2023-02-23T14:08:10.088Z,-0.86
2023-02-23T14:09:21.704Z,-0.85
2023-02-23T14:10:27.003Z,-0.84
2023-02-23T14:11:44.990Z,-0.83
2023-02-23T14:13:15.110Z,-0.79
2023-02-23T14:14:36.267Z,-0.78
2023-02-23T14:15:47.569Z,-0.72
2023-02-23T14:16:51.507Z,-0.71
2023-02-23T14:17:59.191Z,-0.80
2023-02-23T14:19:10.479Z,-0.76
2023-02-23T14:20:27.911Z,-0.81
2023-02-23T14:21:26.849Z,-0.82
2023-02-23T14:22:29.545Z,-0.79
2023-02-23T14:23:53.534Z,-0.84
2023-02-23T14:25:35.546Z,-0.89
2023-02-23T14:26:41.993Z,-0.99
2023-02-23T14:27:44.678Z,-0.94
2023-02-23T14:29:07.281Z,-0.96
2023-02-23T14:31:29.265Z,-0.86
2023-02-23T14:32:35.217Z,-1.04
2023-02-23T14:33:47.366Z,-1.01
2023-02-23T14:34:55.796Z,-1.03
2023-02-23T14:36:01.743Z,-1.02